Time;durP1;ratioP1;P1;durP2;ratioP2;P2;SDS_P1;SDS_P2;PMS_P1;PMS_P2;Temp;Humidity;BMP_temperature;BMP_pressure;BME280_temperature;BME280_humidity;BME280_pressure;Samples;Min_cycle;Max_cycle;Signal;HPM_P1;HPM_P2
2022/01/25 00:24:28;;;;;;;49.40;22.40;;;;;;;16.81;31.94;103561.88;5036288;28;20192;-69
2022/01/25 00:29:54;;;;;;;46.13;21.13;;;;;;;16.72;31.89;103558.31;5071594;28;20193;-69
2022/01/25 00:32:13;;;;;;;51.67;23.33;;;;;;;16.66;32.72;103558.25;5041311;28;20029;-69
2022/01/25 00:34:38;;;;;;;54.20;23.30;;;;;;;16.50;32.54;103551.97;5054094;28;20091;-69
2022/01/25 00:37:04;;;;;;;52.27;22.43;;;;;;;16.35;33.04;103558.00;5066800;28;20427;-70
2022/01/25 00:39:30;;;;;;;51.80;23.67;;;;;;;16.76;32.58;103560.09;5072334;28;20028;-69
2022/01/25 00:41:55;;;;;;;53.67;23.50;;;;;;;16.16;32.72;103556.06;5057235;28;20518;-70
2022/01/25 00:44:20;;;;;;;51.37;23.17;;;;;;;16.49;32.76;103559.88;5071520;28;20120;-69
2022/01/25 00:46:46;;;;;;;54.00;22.93;;;;;;;16.78;32.18;103563.63;5067516;28;20488;-69
2022/01/25 00:49:20;;;;;;;50.20;22.50;;;;;;;16.54;32.87;103558.16;5065032;28;20024;-69
2022/01/25 00:54:26;;;;;;;49.13;22.43;;;;;;;16.38;32.97;103567.72;5054784;28;20111;-69
2022/01/25 00:56:52;;;;;;;43.27;20.30;;;;;;;16.68;32.89;103556.50;5059319;28;20025;-69
2022/01/25 00:59:24;;;;;;;52.80;22.13;;;;;;;16.99;32.39;103551.47;5058690;28;20135;-70
2022/01/25 01:01:53;;;;;;;54.43;23.40;;;;;;;17.24;31.59;103548.94;5061576;28;20081;-69
2022/01/25 01:04:19;;;;;;;49.10;22.67;;;;;;;17.29;31.52;103549.88;5072705;28;20024;-69
2022/01/25 01:06:46;;;;;;;49.87;22.53;;;;;;;17.43;31.49;103536.72;5064044;28;20086;-69
2022/01/25 01:09:12;;;;;;;53.90;22.63;;;;;;;17.13;32.02;103541.88;5062895;28;20029;-69
2022/01/25 01:12:04;;;;;;;54.07;22.60;;;;;;;17.30;31.52;103533.13;5061734;28;20546;-69
2022/01/25 01:30:38;;;;;;;54.40;23.23;;;;;;;17.69;30.63;103534.16;5066587;28;20080;-69
2022/01/25 01:43:54;;;;;;;56.07;23.33;;;;;;;17.62;30.29;103537.66;5057028;28;20056;-70
2022/01/25 01:46:45;;;;;;;51.90;22.87;;;;;;;17.72;30.65;103531.53;5060920;28;20058;-69
2022/01/25 01:49:11;;;;;;;56.70;24.43;;;;;;;17.17;31.28;103540.09;5059868;28;20052;-69
2022/01/25 01:51:42;;;;;;;57.97;24.80;;;;;;;17.44;30.96;103533.19;5054688;28;20365;-70
2022/01/25 01:54:10;;;;;;;60.20;25.17;;;;;;;16.82;31.27;103538.13;5078197;28;20427;-69
2022/01/25 01:56:37;;;;;;;53.90;24.27;;;;;;;17.18;31.58;103535.72;5066988;28;20512;-68
2022/01/25 01:59:07;;;;;;;53.97;22.97;;;;;;;17.68;30.56;103521.81;5071014;28;20063;-69
2022/01/25 02:01:35;;;;;;;62.67;25.13;;;;;;;17.07;32.05;103523.31;5062220;28;20078;-69
2022/01/25 02:04:02;;;;;;;55.27;23.00;;;;;;;17.57;30.93;103523.53;5069330;28;20025;-69
2022/01/25 02:06:27;;;;;;;56.47;24.17;;;;;;;18.10;30.30;103530.72;5065199;28;20090;-69
2022/01/25 02:08:53;;;;;;;57.67;24.37;;;;;;;16.76;32.11;103528.41;5071482;28;20020;-69
2022/01/25 02:11:19;;;;;;;56.37;24.30;;;;;;;17.09;31.78;103525.97;5072335;28;20104;-69
2022/01/25 02:13:46;;;;;;;60.23;25.43;;;;;;;17.17;31.60;103523.38;5066236;28;20507;-69
2022/01/25 02:16:30;;;;;;;57.03;23.93;;;;;;;17.22;31.63;103527.81;5071572;28;20468;-69
2022/01/25 02:24:27;;;;;;;52.83;21.03;;;;;;;17.60;31.04;103515.63;5063037;28;20139;-69
2022/01/25 02:26:56;;;;;;;58.23;23.50;;;;;;;18.10;30.27;103503.41;5057944;28;20029;-69
2022/01/25 02:29:21;;;;;;;57.03;23.53;;;;;;;18.22;29.34;103510.47;5052585;28;20024;-69
2022/01/25 02:31:47;;;;;;;57.43;24.37;;;;;;;17.69;31.05;103512.13;5068984;28;20028;-69
2022/01/25 02:34:38;;;;;;;61.83;25.20;;;;;;;17.52;31.36;103498.84;5065132;28;20078;-68
2022/01/25 02:37:14;;;;;;;57.20;23.87;;;;;;;17.66;31.42;103497.13;5067442;28;20404;-69
2022/01/25 02:39:42;;;;;;;58.37;23.83;;;;;;;16.85;31.92;103509.06;5068067;28;20033;-69
2022/01/25 02:42:12;;;;;;;61.53;25.03;;;;;;;16.92;32.31;103502.09;5069969;28;20024;-69
2022/01/25 02:44:38;;;;;;;62.77;25.57;;;;;;;17.63;30.32;103499.75;5066939;28;20029;-69
2022/01/25 02:49:49;;;;;;;57.40;22.83;;;;;;;16.22;32.73;103509.47;5060288;28;20086;-69
2022/01/25 02:52:14;;;;;;;57.27;23.60;;;;;;;17.08;32.01;103508.38;5067834;28;20024;-69
2022/01/25 02:54:41;;;;;;;56.97;23.63;;;;;;;16.94;31.68;103510.94;5061799;28;20035;-69
2022/01/25 02:57:07;;;;;;;61.37;24.37;;;;;;;16.82;32.26;103521.41;5067488;28;20042;-69
2022/01/25 02:59:32;;;;;;;59.03;24.07;;;;;;;17.36;30.86;103513.78;5054349;28;20021;-69
2022/01/25 03:01:57;;;;;;;56.90;23.23;;;;;;;17.32;30.65;103512.00;5052865;28;20029;-70
2022/01/25 03:04:23;;;;;;;57.20;23.80;;;;;;;17.21;31.47;103520.75;5064676;28;20407;-69
2022/01/25 03:06:49;;;;;;;60.27;24.27;;;;;;;16.73;32.15;103523.09;5064014;28;20142;-69
2022/01/25 03:09:15;;;;;;;63.30;25.20;;;;;;;17.01;31.48;103518.03;5056964;28;20060;-69
2022/01/25 03:11:44;;;;;;;57.83;23.87;;;;;;;16.94;31.17;103527.66;5063635;28;20055;-69
2022/01/25 03:14:11;;;;;;;61.57;25.33;;;;;;;17.27;30.36;103525.19;5048764;28;20124;-69
2022/01/25 03:16:46;;;;;;;62.53;25.47;;;;;;;17.29;31.18;103526.06;5065701;28;20421;-69
2022/01/25 03:22:29;;;;;;;62.07;25.10;;;;;;;16.77;31.82;103530.19;5008364;28;20049;-69
2022/01/25 03:24:55;;;;;;;57.93;23.27;;;;;;;17.23;31.19;103519.00;5070421;28;20496;-69
2022/01/25 03:27:20;;;;;;;62.27;24.23;;;;;;;17.34;31.06;103513.78;5061660;28;20063;-69
2022/01/25 03:29:45;;;;;;;63.53;24.40;;;;;;;17.29;31.16;103505.81;5068151;28;20036;-69
2022/01/25 03:32:11;;;;;;;58.97;22.50;;;;;;;17.35;30.98;103507.63;5067151;28;20039;-69
2022/01/25 03:34:36;;;;;;;58.57;25.20;;;;;;;16.99;31.44;103509.19;5065689;28;20078;-69
2022/01/25 03:37:02;;;;;;;58.93;22.97;;;;;;;17.63;30.63;103502.41;5065446;28;20059;-69
2022/01/25 03:39:27;;;;;;;62.80;25.90;;;;;;;17.43;30.52;103504.97;5067088;28;20067;-70
2022/01/25 03:41:53;;;;;;;60.27;24.83;;;;;;;17.53;30.61;103503.25;5058341;28;20032;-69
2022/01/25 03:44:18;;;;;;;60.20;23.63;;;;;;;17.39;30.51;103503.19;5066390;28;20029;-69
2022/01/25 03:52:00;;;;;;;60.97;23.77;;;;;;;17.88;30.02;103499.81;5066908;28;20449;-69
2022/01/25 03:54:25;;;;;;;69.40;26.00;;;;;;;17.70;31.05;103493.59;5066956;28;20037;-69
2022/01/25 03:56:51;;;;;;;56.67;22.60;;;;;;;17.52;31.19;103499.72;5065833;28;20032;-69
2022/01/25 03:59:17;;;;;;;62.00;25.70;;;;;;;17.57;30.81;103502.38;5067026;28;20081;-70
2022/01/25 04:01:42;;;;;;;60.60;24.13;;;;;;;17.79;29.50;103514.78;5065874;28;20031;-69
2022/01/25 04:04:12;;;;;;;60.40;24.33;;;;;;;17.44;29.87;103504.97;5055951;28;20332;-69
2022/01/25 04:06:39;;;;;;;61.90;25.90;;;;;;;17.62;29.61;103504.16;5062159;28;20084;-69
2022/01/25 04:09:07;;;;;;;57.00;24.17;;;;;;;18.21;29.08;103496.34;5071969;28;20031;-69
2022/01/25 04:11:33;;;;;;;65.80;23.50;;;;;;;17.65;29.71;103500.63;5069808;28;20438;-70
2022/01/25 04:14:00;;;;;;;62.30;25.67;;;;;;;18.24;29.09;103495.47;5070433;28;20099;-69
2022/01/25 04:16:34;;;;;;;59.37;24.70;;;;;;;17.91;29.78;103497.16;5068015;28;20020;-69
2022/01/25 04:21:46;;;;;;;59.70;23.93;;;;;;;17.63;30.94;103494.47;5070767;28;20048;-70
2022/01/25 04:26:56;;;;;;;58.47;22.97;;;;;;;18.21;29.52;103485.75;5046759;28;20036;-69
2022/01/25 04:29:22;;;;;;;59.93;23.83;;;;;;;18.43;29.31;103491.91;5033542;28;20037;-69
2022/01/25 04:31:48;;;;;;;61.53;24.60;;;;;;;17.98;29.45;103488.38;5042532;28;20032;-69
2022/01/25 04:51:13;;;;;;;58.97;23.50;;;;;;;17.29;30.80;103481.13;5053082;28;20047;-69
2022/01/25 04:54:07;;;;;;;57.10;22.93;;;;;;;17.23;29.37;103475.84;5066902;28;20480;-69
2022/01/25 04:57:11;;;;;;;59.40;24.57;;;;;;;17.29;29.80;103487.31;5056759;28;20353;-70
2022/01/25 05:01:41;;;;;;;59.37;25.33;;;;;;;17.83;29.09;103470.69;5042654;28;20468;-70
2022/01/25 05:04:15;;;;;;;60.97;24.53;;;;;;;18.08;28.97;103468.09;5050139;28;20535;-69
2022/01/25 05:06:44;;;;;;;64.10;25.60;;;;;;;17.81;29.33;103469.81;5050510;28;20055;-68
2022/01/25 05:09:12;;;;;;;61.47;25.10;;;;;;;18.15;29.44;103469.88;5050139;28;20021;-69
2022/01/25 05:11:45;;;;;;;65.47;25.17;;;;;;;17.76;30.02;103472.47;5059711;28;20021;-69
2022/01/25 05:17:00;;;;;;;66.37;26.47;;;;;;;17.56;30.09;103472.41;5053650;28;20629;-69
2022/01/25 05:22:03;;;;;;;62.33;25.07;;;;;;;17.64;29.94;103477.75;5071584;28;20036;-69
2022/01/25 05:22:19;;;;;;;60.23;24.57;;;;;;;17.82;30.35;103468.94;5052266;28;20416;-71
2022/01/25 05:24:46;;;;;;;63.20;25.80;;;;;;;18.04;29.51;103461.94;5068080;28;20116;-71
2022/01/25 05:27:16;;;;;;;59.40;24.90;;;;;;;17.84;29.84;103461.00;5066007;28;20036;-69
2022/01/25 05:29:42;;;;;;;64.13;26.27;;;;;;;18.05;29.77;103455.78;5071473;28;20056;-69
2022/01/25 05:32:08;;;;;;;63.10;24.47;;;;;;;17.54;30.38;103465.34;5078810;28;20408;-69
2022/01/25 05:34:33;;;;;;;61.07;24.73;;;;;;;17.44;30.36;103459.16;5068902;28;20362;-69
2022/01/25 05:36:59;;;;;;;64.40;26.77;;;;;;;17.63;30.46;103465.38;5066563;28;20039;-69
2022/01/25 05:39:36;;;;;;;65.97;25.83;;;;;;;17.72;29.71;103470.69;5069387;28;20033;-69
2022/01/25 05:42:23;;;;;;;62.53;24.87;;;;;;;18.09;29.55;103465.47;5068636;28;20050;-69
2022/01/25 05:47:17;;;;;;;60.97;26.03;;;;;;;17.71;29.60;103468.94;5055679;28;20124;-68
2022/01/25 05:49:43;;;;;;;64.60;26.33;;;;;;;16.82;30.95;103465.94;5068032;28;20099;-69
2022/01/25 05:52:09;;;;;;;58.67;23.93;;;;;;;17.48;29.52;103470.66;5064130;28;20032;-69
2022/01/25 05:54:35;;;;;;;70.10;26.47;;;;;;;17.30;29.92;103467.94;5068772;28;20380;-69
2022/01/25 05:57:01;;;;;;;68.37;25.90;;;;;;;17.63;30.14;103465.38;5065185;28;20028;-69
2022/01/25 05:59:26;;;;;;;63.87;25.43;;;;;;;17.61;29.96;103472.41;5068885;28;20388;-69
2022/01/25 06:01:52;;;;;;;63.10;25.57;;;;;;;17.67;30.08;103480.38;5068281;28;20039;-69
2022/01/25 06:04:17;;;;;;;62.73;24.27;;;;;;;16.70;30.35;103491.38;5067422;28;20024;-68
2022/01/25 06:06:43;;;;;;;67.33;26.33;;;;;;;16.78;30.93;103484.38;5068609;28;20028;-71
2022/01/25 06:09:09;;;;;;;63.13;25.53;;;;;;;16.86;30.45;103486.22;5070234;28;20028;-69
2022/01/25 06:11:35;;;;;;;64.83;24.70;;;;;;;17.37;29.58;103484.69;5066147;28;20047;-69
2022/01/25 06:14:01;;;;;;;60.67;23.90;;;;;;;17.17;30.45;103487.25;5061248;28;20060;-69
2022/01/25 06:16:29;;;;;;;63.90;24.97;;;;;;;17.81;29.82;103477.75;5068971;28;20094;-69
2022/01/25 06:18:56;;;;;;;64.03;24.53;;;;;;;17.63;29.45;103486.53;5085038;28;20024;-69
2022/01/25 06:21:21;;;;;;;64.07;25.77;;;;;;;17.92;29.55;103475.16;5053738;28;20049;-69
2022/01/25 06:23:46;;;;;;;67.53;26.30;;;;;;;18.09;29.20;103476.06;5058462;28;20487;-69
2022/01/25 06:26:12;;;;;;;70.10;25.93;;;;;;;17.34;29.93;103473.22;5064334;28;20052;-70
2022/01/25 06:28:37;;;;;;;63.93;25.37;;;;;;;17.56;29.83;103479.47;5054191;28;20031;-69
2022/01/25 06:31:03;;;;;;;64.60;26.33;;;;;;;17.51;30.38;103491.81;5067204;28;20028;-69
2022/01/25 06:33:28;;;;;;;68.67;26.27;;;;;;;17.21;30.12;103488.16;5049672;28;20102;-69
2022/01/25 06:35:53;;;;;;;61.50;25.37;;;;;;;17.82;29.63;103487.47;5050883;28;20111;-69
2022/01/25 06:38:19;;;;;;;62.63;24.53;;;;;;;17.63;29.94;103486.53;5056192;28;20063;-70
2022/01/25 06:40:44;;;;;;;61.57;23.73;;;;;;;17.63;29.42;103482.13;5050034;28;20476;-69
2022/01/25 06:43:09;;;;;;;72.83;25.07;;;;;;;18.12;28.57;103486.66;5063537;28;20056;-69
2022/01/25 06:45:39;;;;;;;67.60;25.83;;;;;;;17.77;29.45;103484.78;5069110;28;20089;-69
2022/01/25 06:48:06;;;;;;;65.50;25.30;;;;;;;17.48;29.33;103481.22;5048292;28;20029;-69
2022/01/25 06:50:31;;;;;;;64.87;25.27;;;;;;;17.37;29.85;103479.41;5052443;28;20021;-69
2022/01/25 06:52:56;;;;;;;67.07;25.13;;;;;;;17.77;29.84;103495.38;5067197;28;20078;-69
2022/01/25 06:55:23;;;;;;;67.87;25.77;;;;;;;17.90;29.32;103484.81;5048009;28;20036;-69
2022/01/25 06:57:48;;;;;;;69.07;25.10;;;;;;;17.24;30.05;103489.06;5050928;28;20027;-70
2022/01/25 07:00:21;;;;;;;65.53;25.17;;;;;;;18.05;29.10;103484.88;5050676;28;20029;-71
2022/01/25 07:02:46;;;;;;;62.72;24.35;;;;;;;17.57;29.54;103486.50;5029160;28;20037;-71
2022/01/25 07:05:12;;;;;;;68.67;25.37;;;;;;;17.26;29.94;103497.00;5040033;28;20040;-71
2022/01/25 07:07:38;;;;;;;61.87;23.93;;;;;;;17.44;29.81;103489.13;5060056;28;20461;-70
2022/01/25 07:10:05;;;;;;;67.33;26.47;;;;;;;17.75;29.87;103497.16;5066740;28;20466;-69
2022/01/25 07:12:30;;;;;;;66.57;25.73;;;;;;;17.36;29.28;103498.78;5066732;28;20036;-69
2022/01/25 07:14:56;;;;;;;68.23;26.30;;;;;;;17.35;30.03;103502.34;5069350;28;20063;-69
2022/01/25 07:17:21;;;;;;;66.90;25.67;;;;;;;17.53;29.69;103505.88;5069653;28;20054;-69
2022/01/25 07:19:48;;;;;;;65.53;24.97;;;;;;;17.70;29.99;103501.53;5069408;28;20086;-69
2022/01/25 07:22:13;;;;;;;63.60;24.80;;;;;;;18.22;28.93;103497.25;5068280;28;20115;-69
2022/01/25 07:24:39;;;;;;;73.27;24.90;;;;;;;17.74;29.19;103503.31;5068558;28;20119;-69
2022/01/25 07:27:05;;;;;;;74.30;27.93;;;;;;;17.75;28.90;103501.53;5069791;28;20035;-69
2022/01/25 07:29:30;;;;;;;64.43;25.23;;;;;;;17.57;29.70;103507.66;5067725;28;20478;-70
2022/01/25 07:31:55;;;;;;;63.97;25.20;;;;;;;17.36;29.91;103514.66;5068607;28;20028;-70
2022/01/25 07:34:22;;;;;;;69.47;26.63;;;;;;;17.26;30.50;103512.84;5068012;28;20024;-70
2022/01/25 07:36:47;;;;;;;62.07;26.13;;;;;;;16.70;31.19;103515.13;5068255;28;20369;-70
2022/01/25 07:39:12;;;;;;;60.53;23.40;;;;;;;17.36;30.16;103517.28;5068768;28;20113;-70
2022/01/25 07:41:38;;;;;;;72.47;26.93;;;;;;;17.32;29.89;103512.88;5068611;28;20073;-70
2022/01/25 07:44:05;;;;;;;65.27;25.70;;;;;;;17.62;29.94;103512.09;5067850;28;20028;-70
2022/01/25 07:46:31;;;;;;;64.63;25.13;;;;;;;17.37;30.04;103521.72;5069704;28;20091;-70
2022/01/25 07:48:57;;;;;;;67.40;26.00;;;;;;;17.15;30.13;103519.84;5068383;28;20173;-70
2022/01/25 07:51:25;;;;;;;70.17;25.00;;;;;;;17.06;30.10;103505.72;5084489;28;20036;-70
2022/01/25 07:53:51;;;;;;;65.97;25.07;;;;;;;17.09;30.16;103502.19;5068386;28;20044;-70
2022/01/25 07:56:16;;;;;;;68.67;25.73;;;;;;;16.87;30.71;103509.06;5069451;28;20415;-70
2022/01/25 07:58:42;;;;;;;65.10;26.47;;;;;;;17.28;30.07;103503.16;5067389;28;20040;-70
2022/01/25 08:01:07;;;;;;;71.47;26.33;;;;;;;17.59;29.31;103500.63;5069756;28;20506;-70
2022/01/25 08:03:33;;;;;;;70.27;25.40;;;;;;;17.39;29.86;103501.47;5067565;28;20021;-70
2022/01/25 08:05:58;;;;;;;67.10;25.10;;;;;;;17.76;29.15;103498.03;5068227;28;20048;-70
2022/01/25 08:08:23;;;;;;;67.90;25.63;;;;;;;17.52;29.88;103496.22;5069257;28;20971;-70
2022/01/25 08:10:49;;;;;;;69.50;25.63;;;;;;;16.82;30.75;103495.00;5068674;28;20024;-70
2022/01/25 08:13:14;;;;;;;66.60;25.30;;;;;;;16.16;32.23;103503.28;5068218;28;20476;-70
2022/01/25 08:15:40;;;;;;;72.77;26.47;;;;;;;15.96;31.39;103511.88;5068154;28;20032;-70
2022/01/25 08:18:05;;;;;;;70.90;25.13;;;;;;;16.89;30.80;103508.25;5067486;28;20021;-69
2022/01/25 08:20:31;;;;;;;65.87;26.27;;;;;;;17.26;30.38;103500.50;5067642;28;20153;-70
2022/01/25 08:22:56;;;;;;;64.53;24.53;;;;;;;16.58;30.86;103501.84;5068247;28;20035;-70
2022/01/25 08:25:22;;;;;;;67.63;26.10;;;;;;;17.02;30.24;103503.94;5067031;28;20115;-69
2022/01/25 08:27:48;;;;;;;71.47;26.17;;;;;;;16.64;31.22;103512.47;5068253;28;20390;-70
2022/01/25 08:30:14;;;;;;;77.63;27.77;;;;;;;17.06;30.08;103495.16;5069197;28;20036;-70
2022/01/25 08:32:39;;;;;;;71.90;25.87;;;;;;;16.92;30.38;103496.81;5068591;28;20020;-70
2022/01/25 08:35:05;;;;;;;74.70;27.10;;;;;;;17.05;30.56;103492.47;5067910;28;20537;-70
2022/01/25 08:37:31;;;;;;;71.40;26.70;;;;;;;16.86;30.63;103497.66;5067841;28;20106;-70
2022/01/25 08:39:56;;;;;;;68.53;26.10;;;;;;;17.18;30.39;103494.31;5067119;28;20036;-70
2022/01/25 08:42:22;;;;;;;63.17;24.33;;;;;;;17.43;30.07;103486.47;5067406;28;20032;-71
2022/01/25 08:44:48;;;;;;;70.17;26.73;;;;;;;16.30;31.70;103495.50;5067487;28;20047;-69
2022/01/25 08:47:13;;;;;;;72.63;26.67;;;;;;;16.33;32.03;103501.66;5068088;28;20095;-70
2022/01/25 08:49:39;;;;;;;74.73;25.97;;;;;;;16.58;31.62;103492.19;5070783;28;20017;-70
2022/01/25 08:52:05;;;;;;;69.27;26.30;;;;;;;16.35;31.98;103494.66;5072480;28;20024;-70
2022/01/25 08:54:32;;;;;;;65.20;26.47;;;;;;;16.91;31.22;103505.63;5072135;28;20036;-70
2022/01/25 08:56:57;;;;;;;66.37;23.90;;;;;;;16.48;31.25;103505.31;5071353;28;20475;-69
2022/01/25 08:59:23;;;;;;;76.17;26.80;;;;;;;16.23;31.43;103510.38;5070758;28;20028;-69
2022/01/25 09:01:48;;;;;;;71.73;25.70;;;;;;;15.89;31.61;103513.56;5070536;28;20068;-69
2022/01/25 09:04:14;;;;;;;67.70;24.23;;;;;;;16.77;30.82;103506.41;5071087;28;20459;-69
2022/01/25 09:06:40;;;;;;;67.97;25.37;;;;;;;16.53;31.00;103507.09;5070750;28;20020;-69
2022/01/25 09:09:07;;;;;;;69.17;24.80;;;;;;;16.34;31.55;103521.91;5087796;28;20491;-69
2022/01/25 09:11:39;;;;;;;69.27;24.30;;;;;;;15.73;32.08;103512.50;5072239;28;20024;-69
2022/01/25 09:14:05;;;;;;;72.67;27.63;;;;;;;16.58;31.07;103507.13;5087119;28;20028;-69
2022/01/25 09:16:32;;;;;;;70.53;26.17;;;;;;;15.83;32.09;103512.66;5087597;28;20089;-69
2022/01/25 09:18:57;;;;;;;67.73;25.77;;;;;;;16.27;31.45;103517.47;5070578;28;20054;-69
2022/01/25 09:21:22;;;;;;;75.47;26.60;;;;;;;16.02;31.83;103517.22;5069745;28;20071;-72
2022/01/25 09:23:48;;;;;;;77.90;27.63;;;;;;;16.70;30.91;103519.53;5087671;28;20035;-69
2022/01/25 09:26:13;;;;;;;73.13;26.03;;;;;;;16.55;31.08;103522.97;5070697;28;20082;-69
2022/01/25 09:28:39;;;;;;;70.40;26.53;;;;;;;16.79;30.37;103525.78;5071502;28;20031;-69
2022/01/25 09:31:04;;;;;;;72.30;26.17;;;;;;;17.31;30.08;103521.69;5070859;28;20063;-69
2022/01/25 09:33:30;;;;;;;73.20;24.97;;;;;;;16.63;30.80;103530.06;5070769;28;20035;-69
2022/01/25 09:35:56;;;;;;;71.73;26.57;;;;;;;16.77;30.42;103530.19;5069789;28;20036;-69
2022/01/25 09:38:23;;;;;;;69.57;25.93;;;;;;;17.36;29.16;103525.22;5070254;28;20021;-69
2022/01/25 09:40:49;;;;;;;69.57;26.17;;;;;;;17.52;28.91;103520.00;5071911;28;20078;-69
2022/01/25 09:43:16;;;;;;;71.50;26.30;;;;;;;17.57;29.03;103523.53;5069760;28;20024;-69
2022/01/25 09:45:41;;;;;;;67.37;24.57;;;;;;;17.44;28.78;103525.25;5070370;28;20028;-69
2022/01/25 09:48:08;;;;;;;67.63;24.00;;;;;;;17.16;30.07;103532.16;5071812;28;20055;-69
2022/01/25 09:50:36;;;;;;;67.27;25.47;;;;;;;16.85;30.58;103537.25;5069483;28;20450;-69
2022/01/25 09:53:04;;;;;;;72.77;27.13;;;;;;;16.96;30.55;103538.25;5071688;28;20468;-69
2022/01/25 09:55:33;;;;;;;71.73;26.63;;;;;;;17.33;29.23;103540.22;5071350;28;20043;-69
2022/01/25 09:57:58;;;;;;;63.20;24.20;;;;;;;17.37;29.83;103537.56;5070851;28;20035;-70
2022/01/25 10:00:26;;;;;;;67.20;25.27;;;;;;;16.62;30.37;103551.16;5068931;28;20428;-69
2022/01/25 10:05:38;;;;;;;67.65;23.50;;;;;;;17.21;29.83;103551.59;5071497;28;20418;-69
2022/01/25 10:08:09;;;;;;;66.10;24.83;;;;;;;16.93;30.66;103556.72;5070245;28;20474;-69
2022/01/25 10:10:42;;;;;;;69.10;24.80;;;;;;;16.78;30.48;103555.69;5070540;28;20408;-69
2022/01/25 10:13:08;;;;;;;69.18;25.98;;;;;;;16.96;30.38;103554.97;5069980;28;20040;-69
2022/01/25 10:15:33;;;;;;;71.23;26.07;;;;;;;16.90;30.44;103556.72;5069778;28;20476;-69
2022/01/25 10:17:59;;;;;;;70.40;26.10;;;;;;;16.74;30.50;103561.81;5068726;28;20071;-69
2022/01/25 10:20:31;;;;;;;72.13;25.27;;;;;;;15.58;32.30;103565.94;5069313;28;20055;-69
2022/01/25 10:22:59;;;;;;;62.15;23.75;;;;;;;17.06;30.44;103558.56;5070990;28;20044;-69
2022/01/25 10:25:46;;;;;;;70.77;25.80;;;;;;;16.84;30.14;103559.25;5069936;28;20483;-69
2022/01/25 10:28:14;;;;;;;68.43;25.37;;;;;;;17.27;29.65;103554.28;5069801;28;20107;-69
2022/01/25 10:30:47;;;;;;;70.80;26.80;;;;;;;17.18;29.46;103568.31;5069600;28;20017;-69
2022/01/25 10:33:28;;;;;;;71.27;26.23;;;;;;;17.52;29.36;103562.31;5068713;28;20029;-69
2022/01/25 10:35:56;;;;;;;69.07;25.07;;;;;;;16.49;30.46;103571.31;5069421;28;20082;-69
2022/01/25 10:38:25;;;;;;;69.87;24.47;;;;;;;16.63;30.69;103571.44;5085080;28;20056;-69
2022/01/25 10:41:00;;;;;;;69.90;26.07;;;;;;;16.29;31.17;103579.03;5070705;28;20111;-69
2022/01/25 10:43:26;;;;;;;72.97;25.47;;;;;;;15.98;32.59;103573.47;5070191;28;20129;-69
2022/01/25 10:46:05;;;;;;;74.00;27.03;;;;;;;15.53;32.54;103579.94;5068294;28;20039;-69
2022/01/25 10:48:31;;;;;;;70.67;25.50;;;;;;;16.53;31.20;103577.53;5069100;28;20039;-69
2022/01/25 10:51:30;;;;;;;72.50;25.97;;;;;;;16.81;30.54;103569.81;5068990;28;20480;-69
2022/01/25 10:54:13;;;;;;;73.10;26.83;;;;;;;17.27;30.09;103563.09;5060909;28;20479;-69
2022/01/25 10:56:45;;;;;;;70.47;24.87;;;;;;;17.46;29.70;103564.06;5068988;28;20372;-69
2022/01/25 10:59:15;;;;;;;69.25;27.30;;;;;;;17.33;29.89;103564.88;5068931;28;20033;-69
2022/01/25 11:01:51;;;;;;;72.20;26.17;;;;;;;17.49;29.82;103568.47;5069744;28;20054;-69
2022/01/25 11:04:20;;;;;;;69.60;25.80;;;;;;;17.62;29.68;103558.81;5068634;28;20103;-69
2022/01/25 11:06:54;;;;;;;73.57;26.40;;;;;;;17.45;29.50;103564.06;5069530;28;20106;-69
2022/01/25 11:09:24;;;;;;;66.60;25.23;;;;;;;17.49;29.71;103559.63;5069783;28;20463;-69
2022/01/25 11:11:55;;;;;;;74.60;27.07;;;;;;;17.47;29.05;103562.28;5068550;28;20020;-69
2022/01/25 11:17:04;;;;;;;70.43;25.90;;;;;;;17.63;29.35;103563.25;5070155;28;20097;-69
2022/01/25 11:19:30;;;;;;;73.03;27.60;;;;;;;17.25;29.84;103569.22;5068598;28;20423;-69
2022/01/25 11:21:58;;;;;;;74.67;27.07;;;;;;;15.64;31.74;103570.41;5067538;28;20053;-68
2022/01/25 11:24:25;;;;;;;76.30;27.57;;;;;;;16.33;30.83;103567.66;5068133;28;20039;-70
2022/01/25 11:26:52;;;;;;;78.67;27.33;;;;;;;16.13;31.45;103566.56;5068233;28;20040;-69
2022/01/25 11:29:18;;;;;;;81.60;27.97;;;;;;;15.63;31.97;103560.72;5068796;28;20092;-71
2022/01/25 11:31:54;;;;;;;72.07;27.90;;;;;;;17.05;29.96;103556.78;5068554;28;20033;-69
2022/01/25 11:34:24;;;;;;;82.07;27.63;;;;;;;16.99;29.71;103558.50;5069502;28;20016;-69
2022/01/25 11:36:55;;;;;;;75.03;26.33;;;;;;;16.95;30.22;103553.22;5068116;28;20025;-69
2022/01/25 11:39:23;;;;;;;76.07;27.00;;;;;;;17.32;29.83;103549.88;5069154;28;20408;-69
2022/01/25 11:41:49;;;;;;;78.63;29.03;;;;;;;16.81;30.33;103552.19;5084428;28;20028;-69
2022/01/25 11:44:21;;;;;;;73.80;24.70;;;;;;;17.29;29.88;103539.28;5085071;28;20025;-69
2022/01/25 11:46:50;;;;;;;69.45;25.85;;;;;;;15.56;32.66;103553.59;5068394;28;20510;-69
2022/01/25 11:49:21;;;;;;;73.27;26.43;;;;;;;16.57;30.75;103547.63;5067570;28;20032;-69
2022/01/25 11:52:11;;;;;;;76.13;27.83;;;;;;;16.92;30.33;103539.97;5068293;28;20035;-70
2022/01/25 11:54:36;;;;;;;77.90;27.17;;;;;;;17.24;30.11;103541.03;5068297;28;20344;-69
2022/01/25 11:57:28;;;;;;;83.27;26.10;;;;;;;17.27;30.19;103536.66;5068850;28;20028;-69
2022/01/25 11:59:59;;;;;;;77.90;27.77;;;;;;;17.17;30.02;103532.19;5065786;28;20075;-69
2022/01/25 12:02:47;;;;;;;78.90;26.40;;;;;;;16.83;30.70;103531.06;5067952;28;20033;-69
2022/01/25 12:05:15;;;;;;;75.87;28.23;;;;;;;16.83;30.78;103533.72;5068129;28;20032;-69
2022/01/25 12:08:11;;;;;;;85.83;29.87;;;;;;;17.34;30.03;103536.66;5067782;28;20063;-69
2022/01/25 12:10:44;;;;;;;79.27;28.73;;;;;;;16.78;31.08;103529.28;5084142;28;20043;-69
2022/01/25 12:13:16;;;;;;;72.93;26.83;;;;;;;16.47;30.70;103530.81;5084762;28;20036;-69
2022/01/25 12:15:44;;;;;;;79.10;25.83;;;;;;;17.23;29.97;103528.72;5067978;28;20460;-69
2022/01/25 12:18:30;;;;;;;80.63;28.10;;;;;;;17.16;30.25;103521.59;5067224;28;20059;-69
2022/01/25 12:20:56;;;;;;;83.83;27.37;;;;;;;17.31;30.13;103526.97;5067513;28;20052;-69
2022/01/25 12:23:43;;;;;;;79.00;28.67;;;;;;;18.05;29.32;103516.63;5070065;28;20353;-69
2022/01/25 12:26:14;;;;;;;75.90;26.97;;;;;;;18.24;28.73;103512.22;5071977;28;20027;-69
2022/01/25 12:28:44;;;;;;;79.83;28.47;;;;;;;17.10;31.02;103512.78;5071728;28;20024;-69
2022/01/25 12:31:15;;;;;;;81.93;29.03;;;;;;;17.65;29.78;103511.22;5071179;28;20048;-69
2022/01/25 12:33:40;;;;;;;82.43;29.73;;;;;;;17.79;29.51;103509.50;5072968;28;20082;-69
2022/01/25 12:36:08;;;;;;;78.93;28.07;;;;;;;17.70;29.42;103505.97;5071976;28;20036;-69
2022/01/25 12:38:47;;;;;;;77.53;28.70;;;;;;;17.68;29.44;103500.66;5071186;28;20024;-69
2022/01/25 12:41:15;;;;;;;80.40;29.47;;;;;;;17.30;29.94;103504.94;5071589;28;20028;-69
2022/01/25 12:44:02;;;;;;;79.17;27.90;;;;;;;16.95;30.59;103503.03;5073175;28;20498;-70
2022/01/25 12:46:31;;;;;;;73.73;28.83;;;;;;;17.41;30.67;103491.75;5071782;28;20036;-69
2022/01/25 12:48:58;;;;;;;78.03;29.73;;;;;;;17.43;30.46;103489.13;5071789;28;20593;-69
2022/01/25 12:51:26;;;;;;;81.33;29.27;;;;;;;17.37;30.26;103478.53;5072304;28;20028;-69
2022/01/25 12:53:54;;;;;;;75.13;27.60;;;;;;;16.79;31.04;103486.16;5071877;28;20035;-69
2022/01/25 12:56:28;;;;;;;85.70;30.23;;;;;;;17.52;29.84;103477.72;5071019;28;20468;-70
2022/01/25 12:58:57;;;;;;;82.33;29.83;;;;;;;17.77;30.00;103478.63;5071951;28;20030;-69
2022/01/25 13:01:26;;;;;;;78.20;27.53;;;;;;;16.63;30.99;103474.59;5072555;28;20043;-69
2022/01/25 13:04:00;;;;;;;77.80;28.77;;;;;;;17.07;30.70;103465.19;5071226;28;20028;-69